Time;durP1;ratioP1;P1;durP2;ratioP2;P2;SDS_P1;SDS_P2;PMS_P1;PMS_P2;Temp;Humidity;BMP_temperature;BMP_pressure;BME280_temperature;BME280_humidity;BME280_pressure;Samples;Min_cycle;Max_cycle;Signal;HPM_P1;HPM_P2
2021/11/01 00:02:26;;;;;;;19.00;9.38;;;;;;;;;;5046433;28;20080;-71
2021/11/01 00:04:52;;;;;;;11.47;6.47;;;;;;;;;;5042833;28;20631;-71
2021/11/01 00:07:19;;;;;;;11.95;7.85;;;;;;;;;;5039852;28;20073;-71
2021/11/01 00:09:45;;;;;;;14.75;9.60;;;;;;;;;;5035596;28;20084;-71
2021/11/01 00:12:13;;;;;;;12.57;8.82;;;;;;;;;;5042068;28;20594;-72
2021/11/01 00:14:41;;;;;;;14.13;9.80;;;;;;;;;;5041991;28;20141;-71
2021/11/01 00:17:07;;;;;;;17.13;11.35;;;;;;;;;;5045640;28;20080;-71
2021/11/01 00:19:34;;;;;;;24.20;12.07;;;;;;;;;;5039127;28;20137;-71
2021/11/01 00:22:01;;;;;;;17.98;10.95;;;;;;;;;;5047398;28;20132;-71
2021/11/01 00:24:27;;;;;;;21.15;13.25;;;;;;;;;;5040703;28;20088;-71
2021/11/01 00:26:53;;;;;;;24.63;14.25;;;;;;;;;;5040588;28;20731;-71
2021/11/01 00:29:20;;;;;;;23.02;14.85;;;;;;;;;;5038593;28;20045;-71
2021/11/01 00:31:46;;;;;;;24.52;14.75;;;;;;;;;;5029447;28;20089;-71
2021/11/01 00:34:13;;;;;;;23.35;14.38;;;;;;;;;;5046229;28;20131;-71
2021/11/01 00:36:40;;;;;;;21.02;13.48;;;;;;;;;;5040900;28;20049;-71
2021/11/01 00:39:06;;;;;;;21.45;14.68;;;;;;;;;;5040394;28;20085;-71
2021/11/01 00:41:32;;;;;;;24.05;15.05;;;;;;;;;;5042528;28;20052;-71
2021/11/01 00:44:00;;;;;;;24.70;15.10;;;;;;;;;;5038472;28;20141;-71
2021/11/01 00:46:27;;;;;;;27.55;14.90;;;;;;;;;;5045171;28;20037;-71
2021/11/01 00:48:53;;;;;;;30.73;18.75;;;;;;;;;;5039727;28;20187;-71
2021/11/01 00:51:21;;;;;;;31.73;19.27;;;;;;;;;;5023782;28;20076;-71
2021/11/01 00:53:48;;;;;;;28.77;18.15;;;;;;;;;;5040166;28;20049;-71
2021/11/01 00:56:16;;;;;;;30.38;18.25;;;;;;;;;;5048261;28;20135;-71
2021/11/01 00:58:43;;;;;;;24.13;13.52;;;;;;;;;;5040582;28;20112;-71
2021/11/01 01:01:09;;;;;;;30.50;19.17;;;;;;;;;;5040984;28;20092;-71
2021/11/01 01:03:37;;;;;;;24.08;15.25;;;;;;;;;;5040866;28;20049;-72
2021/11/01 01:06:04;;;;;;;27.00;16.90;;;;;;;;;;5046253;28;20077;-71
2021/11/01 01:08:31;;;;;;;28.60;18.05;;;;;;;;;;5045655;28;20049;-71
2021/11/01 01:10:58;;;;;;;24.75;14.77;;;;;;;;;;5039976;28;20068;-71
2021/11/01 01:13:28;;;;;;;24.33;15.07;;;;;;;;;;5047241;28;20520;-71
2021/11/01 01:18:29;;;;;;;26.10;14.13;;;;;;;;;;5041165;28;20140;-71
2021/11/01 01:20:58;;;;;;;23.70;14.85;;;;;;;;;;5039203;28;20081;-71
2021/11/01 01:23:25;;;;;;;23.58;15.57;;;;;;;;;;5045738;28;20571;-71
2021/11/01 01:25:54;;;;;;;25.67;17.13;;;;;;;;;;5044549;28;20136;-71
2021/11/01 01:28:22;;;;;;;21.58;12.30;;;;;;;;;;5044733;28;20050;-71
2021/11/01 01:30:48;;;;;;;22.63;13.50;;;;;;;;;;5050550;28;20141;-71
2021/11/01 01:33:15;;;;;;;22.58;15.45;;;;;;;;;;5045533;28;20136;-72
2021/11/01 01:35:42;;;;;;;23.27;11.97;;;;;;;;;;5024344;28;20627;-71
2021/11/01 01:38:10;;;;;;;19.40;12.00;;;;;;;;;;5050635;28;20049;-71
2021/11/01 01:40:37;;;;;;;26.85;16.90;;;;;;;;;;5047537;28;20334;-72
2021/11/01 01:43:04;;;;;;;16.63;10.95;;;;;;;;;;5043411;28;20050;-72
2021/11/01 01:45:32;;;;;;;18.70;11.30;;;;;;;;;;5044380;28;20083;-69
2021/11/01 01:47:59;;;;;;;22.00;14.18;;;;;;;;;;5050418;28;20498;-69
2021/11/01 01:50:26;;;;;;;21.77;12.17;;;;;;;;;;5046634;28;20045;-69
2021/11/01 01:52:53;;;;;;;23.52;15.50;;;;;;;;;;5044059;28;20544;-71
2021/11/01 01:55:20;;;;;;;25.30;14.87;;;;;;;;;;5044218;28;20100;-72
2021/11/01 01:57:49;;;;;;;23.08;14.43;;;;;;;;;;5047773;28;20140;-71
2021/11/01 02:02:52;;;;;;;24.35;17.15;;;;;;;;;;5046956;28;20124;-71
2021/11/01 02:05:19;;;;;;;21.05;13.43;;;;;;;;;;5049051;28;20144;-71
2021/11/01 02:07:51;;;;;;;23.58;16.25;;;;;;;;;;5047247;28;20502;-71
2021/11/01 02:10:29;;;;;;;27.40;16.33;;;;;;;;;;5043813;28;20132;-71
2021/11/01 02:12:57;;;;;;;28.63;19.63;;;;;;;;;;5041540;28;20572;-71
2021/11/01 02:15:48;;;;;;;30.25;20.23;;;;;;;;;;5046580;28;20132;-71
2021/11/01 02:18:15;;;;;;;28.45;19.33;;;;;;;;;;5034623;28;20124;-68
2021/11/01 02:20:42;;;;;;;30.17;19.85;;;;;;;;;;5040347;28;20085;-68
2021/11/01 02:23:08;;;;;;;37.03;19.90;;;;;;;;;;5043501;28;20081;-69
2021/11/01 02:25:41;;;;;;;27.02;19.48;;;;;;;;;;5028438;28;20091;-69
2021/11/01 02:28:09;;;;;;;25.38;18.33;;;;;;;;;;5044176;28;20080;-68
2021/11/01 02:30:39;;;;;;;27.10;19.40;;;;;;;;;;5044320;28;20127;-69
2021/11/01 02:33:06;;;;;;;28.92;18.85;;;;;;;;;;5048398;28;20076;-69
2021/11/01 02:35:33;;;;;;;34.83;20.05;;;;;;;;;;5039737;28;20133;-69
2021/11/01 02:38:02;;;;;;;30.92;19.55;;;;;;;;;;5037641;28;20128;-68
2021/11/01 02:40:29;;;;;;;31.45;18.13;;;;;;;;;;5040201;28;20477;-71
2021/11/01 02:42:56;;;;;;;26.00;18.05;;;;;;;;;;5042701;28;20041;-70
2021/11/01 02:45:23;;;;;;;25.67;17.88;;;;;;;;;;5038568;28;20091;-69
2021/11/01 02:47:50;;;;;;;25.88;18.30;;;;;;;;;;5045509;28;20080;-69
2021/11/01 02:50:17;;;;;;;27.58;18.20;;;;;;;;;;5042646;28;20533;-70
2021/11/01 02:52:44;;;;;;;23.75;17.88;;;;;;;;;;5036139;28;20100;-69
2021/11/01 02:55:12;;;;;;;28.80;18.65;;;;;;;;;;5045836;28;20128;-70
2021/11/01 02:57:41;;;;;;;29.65;18.83;;;;;;;;;;5041589;28;20053;-70
2021/11/01 03:00:11;;;;;;;25.80;18.98;;;;;;;;;;5045959;28;20088;-70
2021/11/01 03:02:38;;;;;;;31.38;19.67;;;;;;;;;;5041359;28;20076;-70
2021/11/01 03:05:08;;;;;;;30.75;19.77;;;;;;;;;;5040685;28;20052;-70
2021/11/01 03:07:35;;;;;;;32.65;20.55;;;;;;;;;;5042240;28;20076;-70
2021/11/01 03:10:01;;;;;;;;;;;;;;;;;;5039475;28;20141;-70
2021/11/01 03:12:28;;;;;;;26.77;18.17;;;;;;;;;;5040237;28;19968;-70
2021/11/01 03:14:56;;;;;;;28.05;19.55;;;;;;;;;;5044663;28;20053;-69
2021/11/01 03:17:23;;;;;;;28.77;19.98;;;;;;;;;;5039199;28;20100;-70
2021/11/01 03:20:00;;;;;;;30.52;20.17;;;;;;;;;;5040564;28;20128;-70
2021/11/01 03:22:31;;;;;;;32.55;22.15;;;;;;;;;;5041583;28;20087;-71
2021/11/01 03:24:59;;;;;;;34.88;21.25;;;;;;;;;;5039650;28;20133;-70
2021/11/01 03:27:27;;;;;;;35.40;20.70;;;;;;;;;;5024744;28;20127;-71
2021/11/01 03:29:55;;;;;;;34.13;21.67;;;;;;;;;;5040891;28;20615;-71
2021/11/01 03:32:23;;;;;;;30.85;20.52;;;;;;;;;;5041675;28;20083;-71
2021/11/01 03:34:50;;;;;;;32.42;23.15;;;;;;;;;;5042568;28;20174;-71
2021/11/01 03:37:18;;;;;;;35.60;23.33;;;;;;;;;;5037562;28;20128;-71
2021/11/01 03:39:46;;;;;;;33.53;22.77;;;;;;;;;;5044023;28;20136;-71
2021/11/01 03:42:14;;;;;;;36.00;23.40;;;;;;;;;;5029065;28;20127;-71
2021/11/01 03:44:51;;;;;;;36.67;22.90;;;;;;;;;;5046038;28;20133;-71
2021/11/01 03:47:19;;;;;;;33.17;23.13;;;;;;;;;;5038775;28;20117;-71
2021/11/01 03:49:55;;;;;;;;;;;;;;;;;;5041670;28;20052;-71
2021/11/01 03:52:23;;;;;;;35.15;22.63;;;;;;;;;;5044694;28;20003;-71
2021/11/01 03:54:51;;;;;;;35.20;23.10;;;;;;;;;;5040193;28;20091;-71
2021/11/01 03:57:18;;;;;;;;;;;;;;;;;;5046999;28;20573;-71
2021/11/01 03:59:45;;;;;;;37.53;23.80;;;;;;;;;;5042158;28;20019;-71
2021/11/01 04:02:16;;;;;;;42.38;23.83;;;;;;;;;;5042750;28;20084;-71
2021/11/01 04:04:44;;;;;;;35.53;23.77;;;;;;;;;;5043157;28;20049;-70
2021/11/01 04:07:11;;;;;;;40.63;23.92;;;;;;;;;;5045127;28;20141;-71
2021/11/01 04:09:38;;;;;;;33.45;23.83;;;;;;;;;;5038999;28;20053;-71
2021/11/01 04:12:05;;;;;;;35.72;24.30;;;;;;;;;;5047371;28;20153;-70
2021/11/01 04:14:39;;;;;;;37.30;24.55;;;;;;;;;;5038850;28;20092;-70
2021/11/01 04:17:10;;;;;;;34.53;24.25;;;;;;;;;;5040991;28;20104;-70
2021/11/01 04:19:48;;;;;;;36.85;24.92;;;;;;;;;;5044455;28;20084;-70
2021/11/01 04:22:15;;;;;;;40.33;22.77;;;;;;;;;;5048185;28;20539;-70
2021/11/01 04:24:42;;;;;;;35.42;24.27;;;;;;;;;;5038114;28;20084;-70
2021/11/01 04:27:08;;;;;;;38.45;25.02;;;;;;;;;;5038526;28;20132;-70
2021/11/01 04:29:35;;;;;;;39.88;25.05;;;;;;;;;;5047985;28;20140;-70
2021/11/01 04:32:12;;;;;;;37.10;25.13;;;;;;;;;;5039019;28;20164;-70
2021/11/01 04:34:43;;;;;;;34.58;24.65;;;;;;;;;;5039127;28;20500;-70
2021/11/01 04:37:09;;;;;;;38.55;23.92;;;;;;;;;;5037733;28;20080;-70
2021/11/01 04:39:47;;;;;;;37.65;24.25;;;;;;;;;;5053242;28;20136;-71
2021/11/01 04:52:52;;;;;;;37.03;24.10;;;;;;;;;;5042820;28;20120;-71
2021/11/01 04:52:58;;;;;;;38.70;25.05;;;;;;;;;;5041237;28;20508;-72
2021/11/01 04:55:24;;;;;;;38.08;23.75;;;;;;;;;;5042505;28;20057;-71
2021/11/01 04:57:52;;;;;;;36.97;24.13;;;;;;;;;;5051462;28;20124;-71
2021/11/01 05:00:18;;;;;;;;;;;;;;;;;;5052513;28;20175;-71
2021/11/01 05:02:50;;;;;;;;;;;;;;;;;;5040222;28;19964;-71
2021/11/01 05:05:17;;;;;;;;;;;;;;;;;;5039497;28;19921;-71
2021/11/01 05:07:44;;;;;;;;;;;;;;;;;;5043387;28;19960;-71
2021/11/01 05:10:23;;;;;;;;;;;;;;;;;;5044515;28;20443;-71
2021/11/01 05:12:50;;;;;;;;;;;;;;;;;;5038674;28;19972;-70
2021/11/01 05:15:29;;;;;;;;;;;;;;;;;;5043798;28;19990;-71
2021/11/01 05:17:59;;;;;;;;;;;;;;;;;;5042642;28;20346;-70
2021/11/01 05:25:34;;;;;;;;;;;;;;;;;;5043754;28;19960;-70
2021/11/01 05:30:54;;;;;;;;;;;;;;;;;;5039553;28;20409;-71
2021/11/01 05:35:47;;;;;;;;;;;;;;;;;;5043440;28;19967;-71
2021/11/01 05:38:13;;;;;;;;;;;;;;;;;;5044890;28;19975;-71
2021/11/01 05:40:40;;;;;;;;;;;;;;;;;;5048583;28;20136;-71
2021/11/01 05:43:06;;;;;;;;;;;;;;;;;;5040827;28;19964;-70
2021/11/01 05:45:32;;;;;;;;;;;;;;;;;;5043021;28;19975;-70
2021/11/01 05:48:02;;;;;;;;;;;;;;;;;;5040878;28;20033;-70
2021/11/01 05:50:29;;;;;;;;;;;;;;;;;;5046468;28;19951;-70
2021/11/01 05:53:00;;;;;;;;;;;;;;;;;;5045781;28;19968;-70
2021/11/01 06:01:17;;;;;;;;;;;;;;;;;;5046504;28;20012;-70
2021/11/01 06:03:57;;;;;;;;;;;;;;;;;;5039757;28;19921;-70
2021/11/01 06:14:26;;;;;;;;;;;;;;;;;;5049616;28;19959;-71
2021/11/01 06:16:52;;;;;;;;;;;;;;;;;;5038986;28;19972;-70
2021/11/01 06:19:19;;;;;;;;;;;;;;;;;;5043972;28;19925;-71
2021/11/01 06:21:48;;;;;;;;;;;;;;;;;;5039217;28;19960;-72
2021/11/01 06:24:36;;;;;;;;;;;;;;;;;;5039303;28;19928;-71
2021/11/01 06:27:01;;;;;;;;;;;;;;;;;;5042410;28;19968;-72
2021/11/01 06:29:35;;;;;;;;;;;;;;;;;;5042278;28;20440;-71
2021/11/01 06:32:18;;;;;;;;;;;;;;;;;;5043785;28;19968;-71
2021/11/01 06:42:58;;;;;;;;;;;;;;;;;;5048519;28;19967;-72
2021/11/01 06:54:01;;;;;;;;;;;;;;;;;;5042609;28;19932;-72
2021/11/01 07:15:54;;;;;;;;;;;;;;;;;;5045613;28;19963;-70
2021/11/01 07:18:30;;;;;;;;;;;;;;;;;;5045344;28;19982;-70
2021/11/01 08:24:54;;;;;;;;;;;;;;;;;;5042044;28;20375;-71
2021/11/01 08:36:16;;;;;;;;;;;;;;;;;;5042267;28;20031;-71
2021/11/01 09:06:04;;;;;;;;;;;;;;;;;;5045476;28;19982;-70
2021/11/01 09:11:36;;;;;;;;;;;;;;;;;;5039086;28;19979;-70
2021/11/01 09:22:28;;;;;;;;;;;;;;;;;;5041088;28;19960;-70
2021/11/01 09:25:09;;;;;;;;;;;;;;;;;;5043863;28;19921;-70
2021/11/01 09:27:37;;;;;;;;;;;;;;;;;;5042771;28;20393;-70
2021/11/01 09:30:16;;;;;;;;;;;;;;;;;;5044801;28;19921;-70
2021/11/01 09:38:55;;;;;;;;;;;;;;;;;;4989592;28;20004;-70
2021/11/01 09:41:22;;;;;;;;;;;;;;;;;;4991328;28;19929;-70
2021/11/01 09:43:51;;;;;;;;;;;;;;;;;;5022104;28;20013;-70
2021/11/01 09:46:19;;;;;;;;;;;;;;;;;;5051523;28;20337;-70
2021/11/01 09:48:45;;;;;;;;;;;;;;;;;;5042014;28;19943;-70
2021/11/01 09:51:11;;;;;;;;;;;;;;;;;;5039933;28;19960;-70
2021/11/01 09:53:44;;;;;;;;;;;;;;;;;;5040798;28;19979;-70
2021/11/01 10:01:31;;;;;;;;;;;;;;;;;;5043376;28;19964;-70
2021/11/01 10:03:58;;;;;;;;;;;;;;;;;;5044429;28;20476;-70
2021/11/01 10:06:24;;;;;;;;;;;;;;;;;;5042535;28;20027;-70
2021/11/01 10:08:51;;;;;;;;;;;;;;;;;;5037198;28;19921;-70
2021/11/01 10:11:17;;;;;;;;;;;;;;;;;;5047712;28;19975;-70
2021/11/01 10:13:44;;;;;;;;;;;;;;;;;;5040609;28;19972;-70
2021/11/01 10:18:56;;;;;;;;;;;;;;;;;;5005273;28;19965;-70
2021/11/01 10:21:23;;;;;;;;;;;;;;;;;;5004936;28;19921;-70
2021/11/01 10:23:49;;;;;;;;;;;;;;;;;;5005710;28;19972;-70
2021/11/01 10:26:16;;;;;;;;;;;;;;;;;;5003645;28;19925;-70
2021/11/01 10:28:43;;;;;;;;;;;;;;;;;;5009187;28;19964;-70
2021/11/01 10:31:09;;;;;;;;;;;;;;;;;;5006743;28;19972;-69
2021/11/01 10:33:42;;;;;;;;;;;;;;;;;;5000678;28;19972;-70
2021/11/01 10:36:09;;;;;;;;;;;;;;;;;;5004378;28;20004;-70
2021/11/01 10:38:37;;;;;;;;;;;;;;;;;;5002949;28;19973;-70
2021/11/01 10:43:49;;;;;;;;;;;;;;;;;;5001643;28;20405;-70
2021/11/01 11:11:03;;;;;;;;;;;;;;;;;;5005612;28;20397;-70
2021/11/01 11:13:35;;;;;;;;;;;;;;;;;;5004766;28;19969;-70
2021/11/01 11:16:03;;;;;;;;;;;;;;;;;;5000033;28;19976;-70
2021/11/01 11:22:10;;;;;;;;;;;;;;;;;;5041308;28;20021;-70
2021/11/01 11:27:00;;;;;;;;;;;;;;;;;;5050384;28;19972;-70
2021/11/01 11:48:40;;;;;;;;;;;;;;;;;;5045114;28;20335;-70
2021/11/01 11:51:07;;;;;;;;;;;;;;;;;;5025813;28;20024;-70
2021/11/01 11:53:33;;;;;;;;;;;;;;;;;;5043552;28;19972;-70
2021/11/01 11:56:03;;;;;;;;;;;;;;;;;;5039344;28;20012;-70
2021/11/01 11:58:29;;;;;;;;;;;;;;;;;;5045085;28;19921;-70
2021/11/01 12:00:55;;;;;;;;;;;;;;;;;;5037006;28;19960;-70
2021/11/01 12:03:22;;;;;;;;;;;;;;;;;;5041354;28;20384;-70
2021/11/01 12:06:03;;;;;;;;;;;;;;;;;;5041626;28;19967;-70
2021/11/01 12:08:39;;;;;;;;;;;;;;;;;;5043887;28;20483;-70
2021/11/01 12:18:50;;;;;;;;;;;;;;;;;;5038178;28;20220;-70
2021/11/01 12:21:16;;;;;;;;;;;;;;;;;;5040837;28;20019;-71
2021/11/01 12:23:42;;;;;;;;;;;;;;;;;;5043431;28;19975;-70
2021/11/01 12:26:09;;;;;;;;;;;;;;;;;;5035854;28;20036;-70
2021/11/01 12:28:35;;;;;;;;;;;;;;;;;;5046787;28;20528;-71
2021/11/01 12:31:02;;;;;;;;;;;;;;;;;;5044549;28;19964;-71
2021/11/01 12:33:30;;;;;;;;;;;;;;;;;;5041249;28;19925;-71
2021/11/01 12:35:59;;;;;;;;;;;;;;;;;;5038228;28;19963;-71
2021/11/01 12:38:25;;;;;;;;;;;;;;;;;;5047636;28;19971;-70
2021/11/01 12:41:02;;;;;;;;;;;;;;;;;;5040526;28;19932;-70
2021/11/01 12:49:40;;;;;;;;;;;;;;;;;;5015426;28;19925;-71
2021/11/01 12:57:22;;;;;;;;;;;;;;;;;;5044190;28;19984;-70
2021/11/01 12:59:49;;;;;;;;;;;;;;;;;;5046497;28;19971;-71
2021/11/01 13:02:18;;;;;;;;;;;;;;;;;;5047928;28;20378;-71
2021/11/01 13:04:44;;;;;;;;;;;;;;;;;;5046605;28;19991;-70
2021/11/01 13:07:37;;;;;;;;;;;;;;;;;;5043501;28;20427;-70
2021/11/01 13:13:17;;;;;;;;;;;;;;;;;;5039215;28;19932;-71
2021/11/01 13:18:48;;;;;;;;;;;;;;;;;;5043842;28;20487;-71
2021/11/01 13:21:21;;;;;;;;;;;;;;;;;;5047159;28;20005;-71
2021/11/01 13:23:47;;;;;;;;;;;;;;;;;;5049358;28;20273;-71
2021/11/01 13:26:22;;;;;;;;;;;;;;;;;;5046448;28;20031;-71
2021/11/01 13:34:47;;;;;;;;;;;;;;;;;;5047254;28;19925;-70
2021/11/01 13:36:58;;;;;;;;;;;;;;;;;;5046853;28;19956;-71
2021/11/01 13:39:25;;;;;;;;;;;;;;;;;;5034861;28;19963;-71
2021/11/01 13:41:51;;;;;;;;;;;;;;;;;;5047718;28;20339;-70
2021/11/01 13:44:19;;;;;;;;;;;;;;;;;;5046222;28;20410;-71
2021/11/01 13:46:46;;;;;;;;;;;;;;;;;;5050978;28;19921;-71
2021/11/01 13:49:13;;;;;;;;;;;;;;;;;;5047211;28;19921;-70
2021/11/01 13:51:39;;;;;;;;;;;;;;;;;;5042023;28;20404;-71
2021/11/01 13:54:11;;;;;;;;;;;;;;;;;;5031929;28;19952;-71
2021/11/01 13:59:12;;;;;;;;;;;;;;;;;;5055286;28;20013;-71
2021/11/01 15:00:22;;;;;;;;;;;;;;;;;;5039607;28;19964;-70
2021/11/01 15:08:35;;;;;;;;;;;;;;;;;;5043956;28;19975;-70
2021/11/01 15:16:23;;;;;;;;;;;;;;;;;;5045777;28;19965;-70
2021/11/01 15:19:01;;;;;;;;;;;;;;;;;;5042618;28;19960;-70
2021/11/01 15:27:00;;;;;;;;;;;;;;;;;;5047068;28;20396;-70
2021/11/01 15:40:10;;;;;;;;;;;;;;;;;;5047179;28;19925;-70
2021/11/01 16:15:20;;;;;;;;;;;;;;;;;;5038867;28;19928;-71
2021/11/01 16:18:42;;;;;;;;;;;;;;;;;;5038421;28;20410;-70
2021/11/01 16:21:09;;;;;;;;;;;;;;;;;;5038631;28;20024;-70
2021/11/01 16:23:38;;;;;;;;;;;;;;;;;;5029519;28;20011;-70
2021/11/01 16:26:39;;;;;;;;;;;;;;;;;;5042560;28;19921;-70
2021/11/01 16:29:01;;;;;;;;;;;;;;;;;;5045133;28;20012;-70
2021/11/01 16:39:07;;;;;;;;;;;;;;;;;;5043453;28;19972;-70
2021/11/01 16:41:34;;;;;;;;;;;;;;;;;;5040831;28;20511;-70
2021/11/01 16:44:06;;;;;;;;;;;;;;;;;;5044780;28;19975;-70
2021/11/01 16:46:33;;;;;;;;;;;;;;;;;;5048733;28;19964;-69
2021/11/01 16:48:59;;;;;;;;;;;;;;;;;;5053042;28;19979;-70
2021/11/01 16:51:26;;;;;;;;;;;;;;;;;;5043284;28;20027;-70
2021/11/01 16:53:52;;;;;;;;;;;;;;;;;;5046929;28;19925;-70
2021/11/01 16:56:40;;;;;;;;;;;;;;;;;;5039856;28;19968;-70
2021/11/01 16:59:15;;;;;;;;;;;;;;;;;;5047202;28;20451;-70
2021/11/01 17:01:50;;;;;;;;;;;;;;;;;;5043962;28;19960;-70
2021/11/01 17:04:18;;;;;;;;;;;;;;;;;;5028942;28;20462;-70
2021/11/01 17:06:53;;;;;;;;;;;;;;;;;;5044791;28;19993;-70
2021/11/01 17:10:07;;;;;;;;;;;;;;;;;;5048161;28;19964;-70
2021/11/01 17:23:52;;;;;;;;;;;;;;;;;;5048545;28;20007;-69
2021/11/01 17:26:24;;;;;;;;;;;;;;;;;;5042441;28;19935;-70
2021/11/01 17:29:07;;;;;;;;;;;;;;;;;;5041306;28;19932;-70
2021/11/01 17:37:14;;;;;;;;;;;;;;;;;;5044767;28;19980;-70
2021/11/01 18:53:59;;;;;;;;;;;;;;;;;;5042688;28;19952;-71
2021/11/01 18:56:29;;;;;;;;;;;;;;;;;;5044023;28;19928;-72
2021/11/01 18:58:55;;;;;;;;;;;;;;;;;;5044596;28;19960;-70
2021/11/01 19:01:22;;;;;;;;;;;;;;;;;;5043126;28;20432;-70
2021/11/01 19:03:53;;;;;;;;;;;;;;;;;;5037493;28;19956;-71
2021/11/01 19:06:45;;;;;;;;;;;;;;;;;;5041236;28;19932;-70
2021/11/01 19:13:07;;;;;;;;;;;;;;;;;;5045145;28;20632;-70
2021/11/01 20:12:54;;;;;;;;;;;;;;;;;;5039053;28;19925;-69
2021/11/01 21:27:03;;;;;;;;;;;;;;;;;;5042244;28;19998;-70
2021/11/01 21:29:30;;;;;;;;;;;;;;;;;;5043972;28;19924;-69
2021/11/01 21:31:56;;;;;;;;;;;;;;;;;;5041483;28;19971;-70
2021/11/01 21:34:30;;;;;;;;;;;;;;;;;;5044453;28;19978;-69
2021/11/01 21:36:56;;;;;;;;;;;;;;;;;;5044685;28;19979;-69
2021/11/01 21:39:23;;;;;;;;;;;;;;;;;;5044031;28;19983;-69
2021/11/01 21:41:49;;;;;;;;;;;;;;;;;;5044413;28;19925;-69
2021/11/01 21:44:16;;;;;;;;;;;;;;;;;;5038632;28;19968;-69
2021/11/01 21:46:42;;;;;;;;;;;;;;;;;;5049187;28;20432;-70
2021/11/01 21:49:09;;;;;;;;;;;;;;;;;;5045367;28;19925;-69
2021/11/01 21:51:40;;;;;;;;;;;;;;;;;;5045849;28;20304;-70
2021/11/01 21:54:22;;;;;;;;;;;;;;;;;;5050826;28;19960;-69
2021/11/01 22:21:22;;;;;;;;;;;;;;;;;;5046099;28;20099;-70
2021/11/01 22:34:37;;;;;;;;;;;;;;;;;;5047942;28;19921;-70
2021/11/01 22:43:07;;;;;;;;;;;;;;;;;;5040672;28;19924;-69
2021/11/01 22:45:28;;;;;;;;;;;;;;;;;;5041916;28;20044;-69
2021/11/01 22:58:40;;;;;;;;;;;;;;;;;;5042875;28;20209;-69
2021/11/01 23:01:12;;;;;;;;;;;;;;;;;;5036863;28;20014;-69
2021/11/01 23:03:59;;;;;;;;;;;;;;;;;;5046801;28;19970;-69
2021/11/01 23:33:49;;;;;;;;;;;;;;;;;;5040727;28;19932;-69
2021/11/01 23:36:16;;;;;;;;;;;;;;;;;;5037587;28;19921;-69
2021/11/01 23:38:42;;;;;;;;;;;;;;;;;;5040917;28;19967;-70
2021/11/01 23:41:08;;;;;;;;;;;;;;;;;;5039622;28;20442;-69
2021/11/01 23:43:35;;;;;;;;;;;;;;;;;;5046250;28;19971;-70
2021/11/01 23:46:01;;;;;;;;;;;;;;;;;;5045463;28;19956;-69
2021/11/01 23:48:28;;;;;;;;;;;;;;;;;;5048015;28;20399;-69
2021/11/01 23:50:55;;;;;;;;;;;;;;;;;;5038131;28;19921;-69
2021/11/01 23:56:03;;;;;;;;;;;;;;;;;;5040234;28;20013;-69
2021/11/01 23:58:30;;;;;;;;;;;;;;;;;;5041337;28;20015;-69
